createdAt,value
2016-04-22T00:00:03.347Z,0
2016-04-22T00:01:03.335Z,0
2016-04-22T00:02:03.322Z,0
2016-04-22T00:03:03.325Z,0
2016-04-22T00:04:03.306Z,0
2016-04-22T00:05:03.308Z,0
2016-04-22T00:06:03.280Z,0
2016-04-22T00:07:03.267Z,0
2016-04-22T00:08:03.098Z,0
2016-04-22T00:09:03.256Z,0
2016-04-22T00:10:03.228Z,0
2016-04-22T00:11:03.215Z,0
2016-04-22T00:12:03.202Z,0
2016-04-22T00:13:03.205Z,0
2016-04-22T00:14:03.208Z,0
2016-04-22T00:15:03.164Z,0
2016-04-22T00:16:03.166Z,0
2016-04-22T00:17:03.153Z,0
2016-04-22T00:18:03.140Z,0
2016-04-22T00:19:03.128Z,0
2016-04-22T00:20:05.568Z,0
2016-04-22T00:21:03.102Z,0
2016-04-22T00:22:03.088Z,0
2016-04-22T00:23:03.076Z,0
2016-04-22T00:24:03.063Z,0
2016-04-22T00:25:03.050Z,0
2016-04-22T00:26:03.037Z,0
2016-04-22T00:27:03.024Z,0
2016-04-22T00:28:03.058Z,0
2016-04-22T00:29:03.013Z,0
2016-04-22T00:30:03.001Z,0
2016-04-22T00:31:02.988Z,0
2016-04-22T00:32:02.976Z,0
2016-04-22T00:33:02.962Z,0
2016-04-22T00:34:02.949Z,0
2016-04-22T00:35:02.936Z,0
2016-04-22T00:36:02.924Z,0
2016-04-22T00:37:02.911Z,0
2016-04-22T00:38:02.899Z,0
2016-04-22T00:39:02.902Z,0
2016-04-22T00:40:02.872Z,0
2016-04-22T00:41:02.860Z,0
2016-04-22T00:42:02.847Z,0
2016-04-22T00:43:02.834Z,0
2016-04-22T00:44:02.851Z,0
2016-04-22T00:45:02.824Z,0
2016-04-22T00:46:02.810Z,0
2016-04-22T00:47:03.016Z,0
2016-04-22T00:48:02.784Z,0
2016-04-22T00:49:02.771Z,0
2016-04-22T00:50:02.773Z,0
2016-04-22T00:51:02.746Z,0
2016-04-22T00:52:02.733Z,0
2016-04-22T00:53:02.720Z,0
2016-04-22T00:54:02.707Z,0
2016-04-22T00:55:02.695Z,0
2016-04-22T00:56:02.681Z,0
2016-04-22T00:57:02.667Z,0
2016-04-22T00:58:02.686Z,0
2016-04-22T00:59:02.658Z,0
2016-04-22T01:00:02.645Z,0
2016-04-22T01:01:02.616Z,0
2016-04-22T01:02:02.635Z,0
2016-04-22T01:03:02.605Z,0
2016-04-22T01:04:02.608Z,0
2016-04-22T01:05:02.580Z,0
2016-04-22T01:06:02.552Z,0
2016-04-22T01:07:02.569Z,0
2016-04-22T01:08:02.588Z,0
2016-04-22T01:09:02.544Z,0
2016-04-22T01:10:02.531Z,0
2016-04-22T01:11:02.502Z,0
2016-04-22T01:12:02.505Z,0
2016-04-22T01:13:02.493Z,0
2016-04-22T01:14:02.463Z,0
2016-04-22T01:15:02.451Z,0
2016-04-22T01:16:02.454Z,0
2016-04-22T01:17:02.440Z,0
2016-04-22T01:18:02.412Z,0
2016-04-22T01:19:02.399Z,0
2016-04-22T01:20:02.386Z,0
2016-04-22T01:21:02.389Z,0
2016-04-22T01:22:02.407Z,0
2016-04-22T01:23:02.348Z,0
2016-04-22T01:24:02.350Z,0
2016-04-22T01:25:02.353Z,0
2016-04-22T01:26:02.325Z,0
2016-04-22T01:27:02.311Z,0
2016-04-22T01:28:02.298Z,0
2016-04-22T01:29:02.129Z,0
2016-04-22T01:30:02.288Z,0
2016-04-22T01:31:02.259Z,0
2016-04-22T01:32:02.247Z,0
2016-04-22T01:33:02.233Z,0
2016-04-22T01:34:02.221Z,0
2016-04-22T01:35:02.224Z,0
2016-04-22T01:36:02.211Z,0
2016-04-22T01:37:02.213Z,0
2016-04-22T01:38:02.169Z,0
2016-04-22T01:39:02.172Z,0
2016-04-22T01:40:02.158Z,0
2016-04-22T01:41:02.130Z,0
2016-04-22T01:42:02.133Z,0
2016-04-22T01:43:02.136Z,0
2016-04-22T01:44:02.107Z,0
2016-04-22T01:45:02.079Z,0
2016-04-22T01:46:02.065Z,0
2016-04-22T01:47:02.084Z,0
2016-04-22T01:48:02.055Z,0
2016-04-22T01:49:02.058Z,0
2016-04-22T01:50:02.029Z,0
2016-04-22T01:51:02.017Z,0
2016-04-22T01:52:02.020Z,0
2016-04-22T01:53:01.975Z,0
2016-04-22T01:54:01.978Z,0
2016-04-22T01:55:01.981Z,0
2016-04-22T01:56:01.952Z,0
2016-04-22T01:57:01.939Z,0
2016-04-22T01:58:01.786Z,0
2016-04-22T01:59:01.913Z,0
2016-04-22T02:00:01.900Z,0
2016-04-22T02:01:01.903Z,0
2016-04-22T02:02:01.875Z,0
2016-04-22T02:03:01.861Z,0
2016-04-22T02:04:01.848Z,0
2016-04-22T02:05:01.867Z,0
2016-04-22T02:06:01.822Z,0
2016-04-22T02:07:01.810Z,0
2016-04-22T02:08:01.797Z,0
2016-04-22T02:09:01.800Z,0
2016-04-22T02:10:01.786Z,0
2016-04-22T02:11:01.774Z,0
2016-04-22T02:12:01.761Z,0
2016-04-22T02:13:01.826Z,0
2016-04-22T02:14:01.750Z,0
2016-04-22T02:15:01.707Z,0
2016-04-22T02:16:01.693Z,0
2016-04-22T02:17:01.680Z,0
2016-04-22T02:18:01.668Z,0
2016-04-22T02:19:01.670Z,0
2016-04-22T02:20:01.641Z,0
2016-04-22T02:21:01.644Z,0
2016-04-22T02:22:01.616Z,0
2016-04-22T02:23:01.603Z,0
2016-04-22T02:24:01.606Z,0
2016-04-22T02:25:01.576Z,0
2016-04-22T02:26:01.564Z,0
2016-04-22T02:27:01.582Z,0
2016-04-22T02:28:01.445Z,0
2016-04-22T02:29:01.540Z,0
2016-04-22T02:30:01.543Z,0
2016-04-22T02:31:01.500Z,0
2016-04-22T02:32:01.502Z,0
2016-04-22T02:33:01.489Z,0
2016-04-22T02:34:01.475Z,0
2016-04-22T02:35:01.463Z,0
2016-04-22T02:36:01.450Z,0
2016-04-22T02:37:01.422Z,0
2016-04-22T02:38:01.408Z,0
2016-04-22T02:39:01.396Z,0
2016-04-22T02:40:01.383Z,0
2016-04-22T02:41:01.369Z,0
2016-04-22T02:42:01.357Z,0
2016-04-22T02:43:01.375Z,0
2016-04-22T02:44:01.331Z,0
2016-04-22T02:45:01.333Z,0
2016-04-22T02:46:01.321Z,0
2016-04-22T02:47:01.292Z,0
2016-04-22T02:48:01.295Z,0
2016-04-22T02:49:01.266Z,0
2016-04-22T02:50:01.253Z,0
2016-04-22T02:51:01.256Z,0
2016-04-22T02:52:01.243Z,0
2016-04-22T02:53:00.480Z,0
2016-04-22T02:54:01.045Z,0
2016-04-22T02:55:01.189Z,0
2016-04-22T02:56:01.191Z,0
2016-04-22T02:57:01.163Z,0
2016-04-22T02:58:01.057Z,0
2016-04-22T02:59:01.120Z,0
2016-04-22T03:00:01.124Z,0
2016-04-22T03:01:01.111Z,0
2016-04-22T03:02:01.114Z,0
2016-04-22T03:03:01.086Z,0
2016-04-22T03:04:01.088Z,0
2016-04-22T03:05:01.059Z,0
2016-04-22T03:06:01.046Z,0
2016-04-22T03:07:01.049Z,0
2016-04-22T03:08:01.020Z,0
2016-04-22T03:09:01.022Z,0
2016-04-22T03:10:00.994Z,0
2016-04-22T03:11:00.997Z,0
2016-04-22T03:12:00.969Z,0
2016-04-22T03:13:00.972Z,0
2016-04-22T03:14:00.943Z,0
2016-04-22T03:15:00.930Z,0
2016-04-22T03:16:00.933Z,0
2016-04-22T03:17:00.888Z,0
2016-04-22T03:18:00.891Z,0
2016-04-22T03:19:00.738Z,0
2016-04-22T03:20:00.849Z,0
2016-04-22T03:21:00.852Z,0
2016-04-22T03:22:00.824Z,0
2016-04-22T03:23:00.826Z,0
2016-04-22T03:24:00.813Z,0
2016-04-22T03:25:00.801Z,0
2016-04-22T03:26:00.788Z,0
2016-04-22T03:27:00.760Z,0
2016-04-22T03:28:00.809Z,0
2016-04-22T03:29:00.734Z,0
2016-04-22T03:30:00.720Z,0
2016-04-22T03:31:00.707Z,0
2016-04-22T03:32:00.710Z,0
2016-04-22T03:33:00.697Z,0
2016-04-22T03:34:00.684Z,0
2016-04-22T03:35:00.671Z,0
2016-04-22T03:36:00.642Z,0
2016-04-22T03:37:00.661Z,0
2016-04-22T03:38:00.616Z,0
2016-04-22T03:39:00.604Z,0
2016-04-22T03:40:00.606Z,0
2016-04-22T03:41:00.609Z,0
2016-04-22T03:42:00.425Z,0
2016-04-22T03:43:00.552Z,0
2016-04-22T03:44:00.539Z,0
2016-04-22T03:45:00.527Z,0
2016-04-22T03:46:00.513Z,0
2016-04-22T03:47:00.516Z,0
2016-04-22T03:48:00.488Z,0
2016-04-22T03:49:00.474Z,0
2016-04-22T03:50:00.462Z,0
2016-04-22T03:51:00.292Z,0
2016-04-22T03:52:00.279Z,0
2016-04-22T03:53:00.438Z,0
2016-04-22T03:54:00.410Z,0
2016-04-22T03:55:00.397Z,0
2016-04-22T03:56:00.385Z,0
2016-04-22T03:57:00.356Z,0
2016-04-22T03:58:00.343Z,0
2016-04-22T03:59:00.345Z,0
2016-04-22T04:00:00.317Z,0
2016-04-22T04:01:00.320Z,0
2016-04-22T04:02:00.306Z,0
2016-04-22T04:03:00.262Z,0
2016-04-22T04:04:00.264Z,0
2016-04-22T04:05:00.252Z,0
2016-04-22T04:06:00.255Z,0
2016-04-22T04:07:00.241Z,0
2016-04-22T04:08:00.214Z,0
2016-04-22T04:09:00.200Z,0
2016-04-22T04:10:00.187Z,0
2016-04-22T04:11:00.175Z,0
2016-04-22T04:12:00.146Z,0
2016-04-22T04:13:00.149Z,0
2016-04-22T04:14:00.119Z,0
2016-04-22T04:15:00.107Z,5
2016-04-22T04:16:00.110Z,5
2016-04-22T04:17:00.096Z,5
2016-04-22T04:18:00.083Z,5
2016-04-22T04:19:00.071Z,5
2016-04-22T04:20:00.042Z,10
2016-04-22T04:21:00.060Z,10
2016-04-22T04:21:59.891Z,10
2016-04-22T04:23:00.018Z,15
2016-04-22T04:24:00.043Z,15
2016-04-22T04:25:00.070Z,15
2016-04-22T04:26:00.096Z,15
2016-04-22T04:27:00.122Z,20
2016-04-22T04:28:00.169Z,20
2016-04-22T04:29:00.139Z,20
2016-04-22T04:30:00.141Z,25
2016-04-22T04:31:00.142Z,25
2016-04-22T04:32:00.143Z,30
2016-04-22T04:33:00.140Z,30
2016-04-22T04:34:00.148Z,35
2016-04-22T04:35:00.125Z,40
2016-04-22T04:36:00.117Z,40
2016-04-22T04:37:00.110Z,45
2016-04-22T04:38:00.084Z,50
2016-04-22T04:39:00.089Z,50
2016-04-22T04:40:00.078Z,50
2016-04-22T04:41:00.066Z,55
2016-04-22T04:42:00.040Z,60
2016-04-22T04:43:00.044Z,65
2016-04-22T04:44:00.016Z,70
2016-04-22T04:44:59.988Z,80
2016-04-22T04:45:59.991Z,75
2016-04-22T04:46:59.994Z,85
2016-04-22T04:47:59.950Z,80
2016-04-22T04:48:59.954Z,80
2016-04-22T04:49:59.941Z,85
2016-04-22T04:50:59.944Z,85
2016-04-22T04:51:59.916Z,85
2016-04-22T04:52:59.903Z,85
2016-04-22T04:53:59.891Z,85
2016-04-22T04:54:59.861Z,85
2016-04-22T04:55:59.864Z,85
2016-04-22T04:56:59.851Z,85
2016-04-22T04:57:59.838Z,80
2016-04-22T04:58:59.810Z,80
2016-04-22T04:59:59.062Z,80
2016-04-22T05:00:59.065Z,80
2016-04-22T05:01:59.771Z,80
2016-04-22T05:02:59.757Z,80
2016-04-22T05:03:59.745Z,75
2016-04-22T05:04:59.638Z,75
2016-04-22T05:05:59.720Z,80
2016-04-22T05:06:59.754Z,80
2016-04-22T05:07:59.709Z,85
2016-04-22T05:08:59.712Z,80
2016-04-22T05:09:59.684Z,80
2016-04-22T05:10:59.655Z,80
2016-04-22T05:11:59.643Z,80
2016-04-22T05:12:59.645Z,80
2016-04-22T05:13:59.617Z,85
2016-04-22T05:14:59.620Z,85
2016-04-22T05:15:59.591Z,90
2016-04-22T05:16:59.578Z,95
2016-04-22T05:17:59.565Z,100
2016-04-22T05:18:59.552Z,105
2016-04-22T05:19:59.555Z,110
2016-04-22T05:20:59.526Z,115
2016-04-22T05:21:59.514Z,120
2016-04-22T05:22:59.485Z,125
2016-04-22T05:23:59.487Z,130
2016-04-22T05:24:59.490Z,130
2016-04-22T05:25:59.461Z,130
2016-04-22T05:26:59.464Z,135
2016-04-22T05:27:59.436Z,135
2016-04-22T05:28:59.423Z,140
2016-04-22T05:29:59.410Z,140
2016-04-22T05:30:59.381Z,145
2016-04-22T05:31:59.369Z,155
2016-04-22T05:32:59.386Z,155
2016-04-22T05:33:59.358Z,155
2016-04-22T05:34:59.345Z,160
2016-04-22T05:35:59.316Z,160
2016-04-22T05:36:59.304Z,165
2016-04-22T05:37:59.338Z,170
2016-04-22T05:38:59.153Z,175
2016-04-22T05:39:59.281Z,175
2016-04-22T05:40:59.251Z,180
2016-04-22T05:41:59.239Z,190
2016-04-22T05:42:59.226Z,200
2016-04-22T05:43:59.244Z,210
2016-04-22T05:44:59.201Z,220
2016-04-22T05:45:59.187Z,235
2016-04-22T05:46:59.174Z,245
2016-04-22T05:47:59.162Z,255
2016-04-22T05:48:59.148Z,270
2016-04-22T05:49:59.151Z,285
2016-04-22T05:50:59.122Z,290
2016-04-22T05:51:59.109Z,295
2016-04-22T05:52:59.112Z,305
2016-04-22T05:53:59.224Z,310
2016-04-22T05:54:59.086Z,315
2016-04-22T05:55:59.058Z,320
2016-04-22T05:56:59.045Z,325
2016-04-22T05:57:59.031Z,330
2016-04-22T05:58:58.285Z,335
2016-04-22T05:59:59.006Z,340
2016-04-22T06:00:58.994Z,350
2016-04-22T06:01:58.980Z,355
2016-04-22T06:02:58.952Z,360
2016-04-22T06:03:58.970Z,370
2016-04-22T06:04:58.926Z,380
2016-04-22T06:05:58.928Z,390
2016-04-22T06:06:58.916Z,405
2016-04-22T06:07:58.903Z,405
2016-04-22T06:08:58.906Z,420
2016-04-22T06:09:58.892Z,420
2016-04-22T06:10:58.863Z,430
2016-04-22T06:11:58.851Z,435
2016-04-22T06:12:58.838Z,445
2016-04-22T06:13:58.871Z,450
2016-04-22T06:14:58.828Z,465
2016-04-22T06:15:58.798Z,475
2016-04-22T06:16:58.786Z,480
2016-04-22T06:17:59.148Z,500
2016-04-22T06:18:58.776Z,525
2016-04-22T06:19:58.747Z,540
2016-04-22T06:20:58.734Z,555
2016-04-22T06:21:58.737Z,585
2016-04-22T06:22:58.723Z,620
2016-04-22T06:23:58.695Z,625
2016-04-22T06:24:58.714Z,625
2016-04-22T06:25:58.701Z,620
2016-04-22T06:26:58.689Z,620
2016-04-22T06:27:58.675Z,605
2016-04-22T06:28:58.522Z,610
2016-04-22T06:29:58.649Z,610
2016-04-22T06:30:58.637Z,615
2016-04-22T06:31:58.608Z,620
2016-04-22T06:32:58.642Z,635
2016-04-22T06:33:58.598Z,630
2016-04-22T06:34:58.585Z,625
2016-04-22T06:35:58.588Z,615
2016-04-22T06:36:58.559Z,610
2016-04-22T06:37:58.546Z,605
2016-04-22T06:38:58.549Z,610
2016-04-22T06:39:58.629Z,640
2016-04-22T06:40:58.554Z,655
2016-04-22T06:41:58.510Z,630
2016-04-22T06:42:58.481Z,640
2016-04-22T06:43:58.359Z,650
2016-04-22T06:44:58.471Z,680
2016-04-22T06:45:58.458Z,670
2016-04-22T06:46:58.288Z,665
2016-04-22T06:47:58.448Z,670
2016-04-22T06:48:58.435Z,675
2016-04-22T06:49:58.438Z,690
2016-04-22T06:50:58.409Z,725
2016-04-22T06:51:58.396Z,755
2016-04-22T06:52:58.383Z,815
2016-04-22T06:53:58.371Z,870
2016-04-22T06:54:58.372Z,895
2016-04-22T06:55:58.359Z,870
2016-04-22T06:56:58.347Z,890
2016-04-22T06:57:58.350Z,875
2016-04-22T06:58:58.196Z,1045
2016-04-22T06:59:58.309Z,1125
2016-04-22T07:00:58.311Z,1110
2016-04-22T07:01:58.297Z,1135
2016-04-22T07:02:58.300Z,1135
2016-04-22T07:03:58.288Z,1130
2016-04-22T07:04:58.275Z,1105
2016-04-22T07:05:58.293Z,1000
2016-04-22T07:06:58.296Z,1050
2016-04-22T07:07:58.252Z,985
2016-04-22T07:08:58.238Z,980
2016-04-22T07:09:58.241Z,1005
2016-04-22T07:10:58.228Z,1035
2016-04-22T07:11:58.247Z,1050
2016-04-22T07:12:58.203Z,1090
2016-04-22T07:13:58.283Z,1175
2016-04-22T07:14:58.208Z,1115
2016-04-22T07:15:58.179Z,1020
2016-04-22T07:16:58.182Z,910
2016-04-22T07:17:58.169Z,910
2016-04-22T07:18:58.156Z,960
2016-04-22T07:19:58.159Z,1015
2016-04-22T07:20:58.146Z,1045
2016-04-22T07:21:58.132Z,1040
2016-04-22T07:22:58.167Z,1070
2016-04-22T07:23:58.138Z,960
2016-04-22T07:24:58.109Z,985
2016-04-22T07:25:58.097Z,885
2016-04-22T07:26:58.115Z,860
2016-04-22T07:27:58.117Z,855
2016-04-22T07:28:58.089Z,855
2016-04-22T07:29:58.061Z,850
2016-04-22T07:30:58.064Z,845
2016-04-22T07:31:58.067Z,840
2016-04-22T07:32:58.053Z,855
2016-04-22T07:33:58.039Z,870
2016-04-22T07:34:58.028Z,905
2016-04-22T07:35:58.124Z,960
2016-04-22T07:36:58.017Z,960
2016-04-22T07:37:58.020Z,955
2016-04-22T07:38:58.007Z,1030
2016-04-22T07:39:58.447Z,1060
2016-04-22T07:40:58.278Z,1075
2016-04-22T07:41:57.968Z,1060
2016-04-22T07:42:57.986Z,1040
2016-04-22T07:43:57.802Z,1070
2016-04-22T07:44:58.132Z,1080
2016-04-22T07:45:57.791Z,1295
2016-04-22T07:46:57.935Z,1380
2016-04-22T07:47:57.952Z,1335
2016-04-22T07:48:57.940Z,1375
2016-04-22T07:49:57.927Z,1435
2016-04-22T07:50:57.914Z,1255
2016-04-22T07:51:57.901Z,1370
2016-04-22T07:52:57.904Z,1180
2016-04-22T07:53:57.906Z,1375
2016-04-22T07:54:57.893Z,1245
2016-04-22T07:55:57.881Z,1090
2016-04-22T07:56:57.884Z,1085
2016-04-22T07:57:57.855Z,1085
2016-04-22T07:58:57.858Z,1105
2016-04-22T07:59:57.845Z,1130
2016-04-22T08:00:57.723Z,1150
2016-04-22T08:01:57.850Z,1220
2016-04-22T08:02:57.836Z,1285
2016-04-22T08:03:57.887Z,1285
2016-04-22T08:04:57.843Z,1240
2016-04-22T08:05:57.813Z,1295
2016-04-22T08:06:57.817Z,1400
2016-04-22T08:07:57.819Z,1525
2016-04-22T08:08:57.791Z,1620
2016-04-22T08:09:57.794Z,1805
2016-04-22T08:10:57.858Z,1660
2016-04-22T08:11:57.799Z,1610
2016-04-22T08:12:57.770Z,1785
2016-04-22T08:13:57.772Z,1420
2016-04-22T08:14:57.760Z,1500
2016-04-22T08:15:57.747Z,1430
2016-04-22T08:16:57.734Z,1415
2016-04-22T08:17:59.080Z,1590
2016-04-22T08:18:57.755Z,1740
2016-04-22T08:19:57.711Z,1645
2016-04-22T08:20:57.838Z,1515
2016-04-22T08:21:57.716Z,1355
2016-04-22T08:22:57.719Z,1290
2016-04-22T08:23:57.690Z,1235
2016-04-22T08:24:57.693Z,1190
2016-04-22T08:25:57.774Z,1155
2016-04-22T08:26:57.667Z,1115
2016-04-22T08:27:57.685Z,1080
2016-04-22T08:28:57.657Z,1060
2016-04-22T08:29:57.644Z,1025
2016-04-22T08:30:57.522Z,1015
2016-04-22T08:31:57.634Z,1020
2016-04-22T08:32:57.620Z,1035
2016-04-22T08:33:57.639Z,1060
2016-04-22T08:34:57.658Z,1080
2016-04-22T08:35:57.456Z,1105
2016-04-22T08:36:57.585Z,1130
2016-04-22T08:37:57.587Z,1150
2016-04-22T08:38:57.589Z,1185
2016-04-22T08:39:57.577Z,1230
2016-04-22T08:40:57.564Z,1255
2016-04-22T08:41:57.552Z,1295
2016-04-22T08:42:57.539Z,1335
2016-04-22T08:43:57.541Z,1320
2016-04-22T08:44:57.622Z,1295
2016-04-22T08:45:57.531Z,1305
2016-04-22T08:46:57.518Z,1325
2016-04-22T08:47:57.536Z,1320
2016-04-22T08:48:57.508Z,1325
2016-04-22T08:49:57.494Z,1335
2016-04-22T08:50:57.497Z,1315
2016-04-22T08:51:57.484Z,1305
2016-04-22T08:52:57.316Z,1330
2016-04-22T08:53:57.443Z,1350
2016-04-22T08:54:57.508Z,1405
2016-04-22T08:55:57.496Z,1480
2016-04-22T08:56:57.451Z,1565
2016-04-22T08:57:57.422Z,1630
2016-04-22T08:58:57.503Z,1675
2016-04-22T08:59:57.413Z,1670
2016-04-22T09:00:57.478Z,1630
2016-04-22T09:01:57.512Z,1535
2016-04-22T09:02:57.576Z,1495
2016-04-22T09:03:57.517Z,1465
2016-04-22T09:04:57.442Z,1460
2016-04-22T09:05:57.569Z,1465
2016-04-22T09:06:57.509Z,1440
2016-04-22T09:07:57.418Z,1415
2016-04-22T09:08:57.359Z,1385
2016-04-22T09:09:57.345Z,1375
2016-04-22T09:10:57.348Z,1380
2016-04-22T09:11:57.335Z,1405
2016-04-22T09:12:57.322Z,1470
2016-04-22T09:13:57.371Z,1545
2016-04-22T09:14:57.296Z,1585
2016-04-22T09:15:57.300Z,1650
2016-04-22T09:16:57.349Z,1745
2016-04-22T09:17:57.289Z,1980
2016-04-22T09:18:57.291Z,2170
2016-04-22T09:19:57.263Z,2240
2016-04-22T09:20:57.266Z,2220
2016-04-22T09:21:57.252Z,2170
2016-04-22T09:22:57.255Z,1705
2016-04-22T09:23:57.250Z,1595
2016-04-22T09:24:57.236Z,1585
2016-04-22T09:25:57.239Z,1720
2016-04-22T09:26:57.226Z,1780
2016-04-22T09:27:57.213Z,1885
2016-04-22T09:28:57.217Z,2035
2016-04-22T09:29:57.219Z,2065
2016-04-22T09:30:57.205Z,2070
2016-04-22T09:31:57.225Z,2060
2016-04-22T09:32:57.180Z,2120
2016-04-22T09:33:57.182Z,2260
2016-04-22T09:34:57.264Z,2365
2016-04-22T09:35:57.189Z,2360
2016-04-22T09:36:57.160Z,2685
2016-04-22T09:37:57.179Z,2310
2016-04-22T09:38:57.150Z,2590
2016-04-22T09:39:57.137Z,2695
2016-04-22T09:40:57.139Z,2765
2016-04-22T09:41:57.127Z,2460
2016-04-22T09:42:57.145Z,2185
2016-04-22T09:43:57.163Z,2060
2016-04-22T09:44:57.182Z,1845
2016-04-22T09:45:57.138Z,1660
2016-04-22T09:46:57.125Z,1660
2016-04-22T09:47:57.112Z,1620
2016-04-22T09:48:57.114Z,1630
2016-04-22T09:49:57.149Z,1730
2016-04-22T09:50:57.119Z,1805
2016-04-22T09:51:57.107Z,1930
2016-04-22T09:52:57.093Z,2250
2016-04-22T09:53:57.112Z,2340
2016-04-22T09:54:57.099Z,2380
2016-04-22T09:55:57.087Z,2370
2016-04-22T09:56:57.074Z,2555
2016-04-22T09:57:57.092Z,2540
2016-04-22T09:58:57.188Z,2380
2016-04-22T09:59:57.112Z,2315
2016-04-22T10:00:57.068Z,2240
2016-04-22T10:01:57.056Z,2360
2016-04-22T10:02:57.073Z,2590
2016-04-22T10:03:57.046Z,2645
2016-04-22T10:04:57.047Z,2670
2016-04-22T10:05:57.067Z,2645
2016-04-22T10:06:57.069Z,2485
2016-04-22T10:13:36.680Z,2190
2016-04-22T10:13:49.165Z,2185
2016-04-22T10:14:49.074Z,2065
2016-04-22T10:15:49.155Z,1960
2016-04-22T10:16:49.158Z,1925
2016-04-22T10:17:49.004Z,1900
2016-04-22T10:18:49.148Z,1865
2016-04-22T10:19:49.151Z,1745
2016-04-22T10:20:49.154Z,1730
2016-04-22T10:21:49.140Z,1750
2016-04-22T10:22:49.127Z,1830
2016-04-22T10:23:49.145Z,1870
2016-04-22T10:24:49.132Z,1740
2016-04-22T10:25:49.120Z,1765
2016-04-22T10:26:49.106Z,2025
2016-04-22T10:27:49.140Z,2070
2016-04-22T10:28:49.096Z,2050
2016-04-22T10:29:49.131Z,1975
2016-04-22T10:30:49.086Z,1920
2016-04-22T10:31:49.089Z,1970
2016-04-22T10:32:49.092Z,2050
2016-04-22T10:33:49.095Z,2145
2016-04-22T10:34:49.082Z,2140
2016-04-22T10:35:49.084Z,2085
2016-04-22T10:36:49.102Z,2070
2016-04-22T10:37:48.339Z,1990
2016-04-22T10:38:49.077Z,1950
2016-04-22T10:39:49.064Z,1925
2016-04-22T10:40:49.082Z,1935
2016-04-22T10:41:49.053Z,1815
2016-04-22T10:42:49.056Z,1690
2016-04-22T10:43:49.044Z,1590
2016-04-22T10:44:48.905Z,1590
2016-04-22T10:45:49.033Z,1660
2016-04-22T10:46:49.051Z,1840
2016-04-22T10:47:49.022Z,1970
2016-04-22T10:48:49.025Z,1930
2016-04-22T10:49:49.027Z,1885
2016-04-22T10:50:49.015Z,1790
2016-04-22T10:51:48.861Z,1715
2016-04-22T10:52:49.004Z,1610
2016-04-22T10:53:49.007Z,1570
2016-04-22T10:54:49.010Z,1630
2016-04-22T10:55:49.028Z,1755
2016-04-22T10:56:49.000Z,2025
2016-04-22T10:57:49.081Z,1940
2016-04-22T10:58:49.067Z,1975
2016-04-22T10:59:49.008Z,2135
2016-04-22T11:00:48.229Z,2180
2016-04-22T11:01:48.967Z,2190
2016-04-22T11:02:48.969Z,2080
2016-04-22T11:03:48.956Z,2105
2016-04-22T11:04:48.958Z,1820
2016-04-22T11:05:48.946Z,1720
2016-04-22T11:06:48.934Z,1730
2016-04-22T11:07:48.936Z,1815
2016-04-22T11:08:48.938Z,2120
2016-04-22T11:09:48.222Z,2215
2016-04-22T11:10:48.944Z,2180
2016-04-22T11:11:48.915Z,2210
2016-04-22T11:12:48.933Z,2250
2016-04-22T11:13:48.921Z,2645
2016-04-22T11:14:48.924Z,2555
2016-04-22T11:15:48.894Z,2855
2016-04-22T11:16:48.913Z,2395
2016-04-22T11:17:48.899Z,2540
2016-04-22T11:18:48.902Z,2500
2016-04-22T11:19:48.890Z,3455
2016-04-22T11:20:48.908Z,2670
2016-04-22T11:21:48.903Z,3085
2016-04-22T11:22:49.186Z,3145
2016-04-22T11:23:48.861Z,2840
2016-04-22T11:24:48.864Z,2810
2016-04-22T11:25:48.866Z,2890
2016-04-22T11:26:48.853Z,2575
2016-04-22T11:27:48.856Z,2880
2016-04-22T11:28:48.859Z,2570
2016-04-22T11:29:48.627Z,2775
2016-04-22T11:30:48.848Z,3115
2016-04-22T11:31:48.867Z,3010
2016-04-22T11:32:48.870Z,2815
2016-04-22T11:33:48.856Z,2940
2016-04-22T11:34:48.858Z,2825
2016-04-22T11:35:48.847Z,2540
2016-04-22T11:36:48.849Z,2705
2016-04-22T11:37:48.835Z,2565
2016-04-22T11:38:48.838Z,2800
2016-04-22T11:39:48.841Z,2865
2016-04-22T11:40:48.844Z,2830
2016-04-22T11:41:48.846Z,2880
2016-04-22T11:42:48.833Z,2765
2016-04-22T11:43:48.836Z,3010
2016-04-22T11:44:48.902Z,3240
2016-04-22T11:45:48.826Z,3170
2016-04-22T11:46:48.812Z,3275
2016-04-22T11:47:48.815Z,3495
2016-04-22T11:48:48.834Z,2555
2016-04-22T11:49:48.665Z,3330
2016-04-22T11:50:48.808Z,1825
2016-04-22T11:51:48.826Z,3140
2016-04-22T11:52:48.860Z,1980
2016-04-22T11:53:48.817Z,2945
2016-04-22T11:54:48.803Z,1650
2016-04-22T11:55:48.806Z,2370
2016-04-22T11:56:48.824Z,1580
2016-04-22T11:57:48.812Z,2025
2016-04-22T11:58:48.814Z,2380
2016-04-22T11:59:48.801Z,2385
2016-04-22T12:00:48.820Z,2425
2016-04-22T12:01:48.822Z,1905
2016-04-22T12:02:48.809Z,1625
2016-04-22T12:03:48.797Z,1665
2016-04-22T12:04:48.783Z,1815
2016-04-22T12:05:48.786Z,2075
2016-04-22T12:06:48.820Z,2215
2016-04-22T12:07:48.775Z,2260
2016-04-22T12:08:48.778Z,2620
2016-04-22T12:09:48.781Z,2655
2016-04-22T12:10:48.783Z,2765
2016-04-22T12:11:48.771Z,2830
2016-04-22T12:12:48.788Z,2750
2016-04-22T12:13:48.791Z,3000
2016-04-22T12:14:48.794Z,3185
2016-04-22T12:15:48.782Z,3360
2016-04-22T12:16:48.800Z,2590
2016-04-22T12:17:48.647Z,2500
2016-04-22T12:18:48.790Z,2725
2016-04-22T12:19:50.044Z,2575
2016-04-22T12:20:48.609Z,2090
2016-04-22T12:21:48.800Z,2110
2016-04-22T12:22:48.787Z,2340
2016-04-22T12:23:48.805Z,2335
2016-04-22T12:24:48.761Z,2410
2016-04-22T12:25:48.794Z,2875
2016-04-22T12:26:48.782Z,2680
2016-04-22T12:27:48.769Z,2455
2016-04-22T12:28:48.741Z,2620
2016-04-22T12:29:48.775Z,2505
2016-04-22T12:30:48.746Z,2550
2016-04-22T12:31:48.780Z,2555
2016-04-22T12:32:48.766Z,2700
2016-04-22T12:33:48.754Z,2465
2016-04-22T12:34:48.741Z,2550
2016-04-22T12:35:48.728Z,2345
2016-04-22T12:36:49.028Z,2365
2016-04-22T12:37:48.733Z,2180
2016-04-22T12:38:48.721Z,2015
2016-04-22T12:39:48.739Z,1975
2016-04-22T12:40:48.741Z,1865
2016-04-22T12:41:48.729Z,1920
2016-04-22T12:42:48.731Z,1685
2016-04-22T12:43:48.718Z,1625
2016-04-22T12:44:48.737Z,1645
2016-04-22T12:45:48.708Z,1670
2016-04-22T12:46:48.711Z,1655
2016-04-22T12:47:48.713Z,1770
2016-04-22T12:48:48.716Z,1585
2016-04-22T12:49:48.703Z,1560
2016-04-22T12:50:48.737Z,1520
2016-04-22T12:51:48.692Z,1485
2016-04-22T12:52:48.696Z,1480
2016-04-22T12:53:48.683Z,1460
2016-04-22T12:54:48.685Z,1465
2016-04-22T12:55:48.672Z,1460
2016-04-22T12:56:48.675Z,1490
2016-04-22T12:57:48.709Z,1470
2016-04-22T12:58:48.681Z,1435
2016-04-22T12:59:48.684Z,1430
2016-04-22T13:00:48.655Z,1450
2016-04-22T13:01:48.657Z,1425
2016-04-22T13:02:48.707Z,1405
2016-04-22T13:03:48.647Z,1385
2016-04-22T13:04:48.650Z,1360
2016-04-22T13:05:48.641Z,1335
2016-04-22T13:06:48.644Z,1310
2016-04-22T13:07:48.647Z,1290
2016-04-22T13:08:48.634Z,1280
2016-04-22T13:09:48.637Z,1280
2016-04-22T13:10:48.624Z,1285
2016-04-22T13:11:48.612Z,1295
2016-04-22T13:12:48.629Z,1320
2016-04-22T13:13:48.617Z,1350
2016-04-22T13:14:48.604Z,1370
2016-04-22T13:15:48.591Z,1400
2016-04-22T13:16:48.609Z,1420
2016-04-22T13:17:48.585Z,1430
2016-04-22T13:18:48.620Z,1435
2016-04-22T13:19:48.591Z,1440
2016-04-22T13:20:48.593Z,1440
2016-04-22T13:21:48.585Z,1435
2016-04-22T13:22:48.572Z,1455
2016-04-22T13:23:48.591Z,1460
2016-04-22T13:24:48.562Z,1485
2016-04-22T13:25:48.565Z,1510
2016-04-22T13:26:48.583Z,1560
2016-04-22T13:27:48.555Z,1580
2016-04-22T13:28:48.593Z,1590
2016-04-22T13:29:48.592Z,1590
2016-04-22T13:30:48.639Z,1590
2016-04-22T13:31:48.685Z,1565
2016-04-22T13:32:48.745Z,1465
2016-04-22T13:33:48.747Z,1390
2016-04-22T13:34:48.765Z,1340
2016-04-22T13:35:48.628Z,1295
2016-04-22T13:36:48.786Z,1250
2016-04-22T13:37:48.789Z,1190
2016-04-22T13:38:48.818Z,1155
2016-04-22T13:39:48.794Z,1130
2016-04-22T13:40:48.820Z,1120
2016-04-22T13:41:48.812Z,1130
2016-04-22T13:42:48.820Z,1145
2016-04-22T13:43:48.843Z,1175
2016-04-22T13:44:48.801Z,1220
2016-04-22T13:45:48.805Z,1280
2016-04-22T13:46:48.810Z,1360
2016-04-22T13:47:48.643Z,1445
2016-04-22T13:48:48.802Z,1530
2016-04-22T13:49:48.805Z,1595
2016-04-22T13:50:48.778Z,1655
2016-04-22T13:51:48.798Z,1715
2016-04-22T13:52:48.785Z,1735
2016-04-22T13:53:48.773Z,1795
2016-04-22T13:54:48.776Z,1830
2016-04-22T13:55:48.779Z,1875
2016-04-22T13:56:48.781Z,1785